Time;durP1;ratioP1;P1;durP2;ratioP2;P2;SDS_P1;SDS_P2;PMS_P1;PMS_P2;Temp;Humidity;BMP_temperature;BMP_pressure;BME280_temperature;BME280_humidity;BME280_pressure;Samples;Min_cycle;Max_cycle;Signal;HPM_P1;HPM_P2
2023/09/01 00:01:00;;;;;;;0.30;0.30;;;;;;;;;;7387771;19;20140;-90
2023/09/01 00:03:26;;;;;;;0.68;0.68;;;;;;;;;;7396213;19;20134;-90
2023/09/01 00:05:53;;;;;;;0.93;0.55;;;;;;;;;;7394376;19;20162;-90
2023/09/01 00:08:21;;;;;;;0.32;0.32;;;;;;;;;;7394468;19;20156;-90
2023/09/01 00:10:47;;;;;;;0.20;0.20;;;;;;;;;;7392009;19;20546;-90
2023/09/01 00:13:14;;;;;;;0.30;0.30;;;;;;;;;;7394316;19;20212;-90
2023/09/01 00:15:41;;;;;;;0.40;0.40;;;;;;;;;;7395297;19;20136;-89
2023/09/01 00:18:07;;;;;;;0.50;0.50;;;;;;;;;;7393897;19;20167;-89
2023/09/01 00:20:34;;;;;;;0.40;0.40;;;;;;;;;;7394322;19;20137;-90
2023/09/01 00:23:03;;;;;;;0.25;0.25;;;;;;;;;;7392008;19;20155;-90
2023/09/01 00:25:30;;;;;;;0.40;0.40;;;;;;;;;;7396964;19;20137;-90
2023/09/01 00:27:57;;;;;;;0.60;0.60;;;;;;;;;;7396334;19;20222;-90
2023/09/01 00:30:27;;;;;;;0.52;0.52;;;;;;;;;;7396047;19;20133;-89
2023/09/01 00:32:54;;;;;;;0.90;0.90;;;;;;;;;;7396874;19;20129;-90
2023/09/01 00:35:21;;;;;;;0.45;0.45;;;;;;;;;;7396177;19;20196;-90
2023/09/01 00:37:50;;;;;;;0.30;0.30;;;;;;;;;;7394800;19;20149;-90
2023/09/01 00:40:16;;;;;;;0.30;0.30;;;;;;;;;;7394618;19;20137;-90
2023/09/01 00:42:43;;;;;;;0.30;0.30;;;;;;;;;;7394243;19;20140;-90
2023/09/01 00:45:10;;;;;;;0.35;0.35;;;;;;;;;;7394877;19;20126;-89
2023/09/01 00:47:36;;;;;;;0.38;0.38;;;;;;;;;;7394258;19;20606;-90
2023/09/01 00:50:07;;;;;;;0.52;0.52;;;;;;;;;;7390757;19;20169;-90
2023/09/01 00:52:35;;;;;;;0.30;0.30;;;;;;;;;;7391443;19;20181;-90
2023/09/01 00:55:02;;;;;;;0.30;0.30;;;;;;;;;;7392462;19;20129;-88
2023/09/01 00:57:29;;;;;;;1.95;1.05;;;;;;;;;;7394202;19;20141;-88
2023/09/01 00:59:57;;;;;;;0.38;0.38;;;;;;;;;;7390988;19;20212;-90
2023/09/01 01:02:24;;;;;;;0.30;0.30;;;;;;;;;;7392143;19;20129;-90
2023/09/01 01:04:53;;;;;;;0.30;0.30;;;;;;;;;;7393134;19;20145;-90
2023/09/01 01:07:31;;;;;;;0.40;0.40;;;;;;;;;;7389587;19;20156;-90
2023/09/01 01:10:19;;;;;;;0.40;0.40;;;;;;;;;;7388892;19;20144;-90
2023/09/01 01:13:04;;;;;;;4.28;2.15;;;;;;;;;;7388744;19;20141;-90
2023/09/01 01:15:32;;;;;;;0.30;0.30;;;;;;;;;;7391720;19;20132;-89
2023/09/01 01:18:05;;;;;;;0.40;0.40;;;;;;;;;;7389907;19;20162;-90
2023/09/01 01:20:38;;;;;;;0.50;0.50;;;;;;;;;;7388432;19;20129;-90
2023/09/01 01:23:14;;;;;;;0.40;0.40;;;;;;;;;;7387976;19;20137;-90
2023/09/01 01:25:51;;;;;;;0.40;0.40;;;;;;;;;;7406017;19;20449;-89
2023/09/01 01:28:18;;;;;;;0.77;0.77;;;;;;;;;;7412546;19;20184;-90
2023/09/01 01:30:47;;;;;;;0.55;0.50;;;;;;;;;;7424164;19;20126;-89
2023/09/01 01:33:27;;;;;;;0.95;0.65;;;;;;;;;;7425336;19;20138;-89
2023/09/01 01:36:16;;;;;;;0.30;0.30;;;;;;;;;;7409134;19;20520;-89
2023/09/01 01:38:46;;;;;;;2.08;0.73;;;;;;;;;;7391566;19;20196;-89
2023/09/01 01:41:33;;;;;;;0.43;0.43;;;;;;;;;;7392225;19;20209;-90
2023/09/01 01:44:00;;;;;;;0.70;0.70;;;;;;;;;;7392852;19;20128;-89
2023/09/01 01:46:28;;;;;;;0.73;0.70;;;;;;;;;;7394579;19;20143;-89
2023/09/01 01:48:55;;;;;;;0.30;0.30;;;;;;;;;;7393415;19;20151;-90
2023/09/01 01:51:21;;;;;;;0.40;0.40;;;;;;;;;;7392063;19;20162;-90
2023/09/01 01:53:48;;;;;;;0.35;0.35;;;;;;;;;;7392694;19;20145;-90
2023/09/01 01:56:15;;;;;;;0.35;0.35;;;;;;;;;;7394651;19;20132;-89
2023/09/01 01:58:41;;;;;;;0.30;0.30;;;;;;;;;;7392493;19;20251;-89
2023/09/01 02:01:08;;;;;;;0.30;0.30;;;;;;;;;;7390876;19;20148;-89
2023/09/01 02:03:35;;;;;;;0.50;0.50;;;;;;;;;;7392268;19;20244;-89
2023/09/01 02:06:02;;;;;;;0.52;0.52;;;;;;;;;;7394307;19;20147;-90
2023/09/01 02:08:29;;;;;;;0.30;0.30;;;;;;;;;;7391949;19;20506;-90
2023/09/01 02:10:55;;;;;;;0.50;0.50;;;;;;;;;;7390827;19;20192;-90
2023/09/01 02:13:22;;;;;;;3.45;1.25;;;;;;;;;;7391822;19;20232;-89
2023/09/01 02:15:51;;;;;;;0.30;0.30;;;;;;;;;;7390910;19;21110;-90
2023/09/01 02:18:18;;;;;;;0.60;0.60;;;;;;;;;;7389793;19;20164;-90
2023/09/01 02:20:45;;;;;;;0.43;0.43;;;;;;;;;;7388697;19;20204;-90
2023/09/01 02:23:15;;;;;;;0.30;0.30;;;;;;;;;;7388095;19;20152;-89
2023/09/01 02:25:43;;;;;;;0.65;0.65;;;;;;;;;;7391732;19;20140;-90
2023/09/01 02:28:09;;;;;;;0.30;0.30;;;;;;;;;;7390945;19;20599;-90
2023/09/01 02:30:37;;;;;;;0.52;0.52;;;;;;;;;;7392225;19;20153;-90
2023/09/01 02:33:04;;;;;;;0.40;0.40;;;;;;;;;;7394387;19;20149;-89
2023/09/01 02:35:31;;;;;;;0.40;0.40;;;;;;;;;;7399630;19;20161;-90
2023/09/01 02:37:58;;;;;;;0.30;0.30;;;;;;;;;;7399259;19;20594;-90
2023/09/01 02:40:25;;;;;;;0.30;0.30;;;;;;;;;;7397884;19;20487;-90
2023/09/01 02:42:52;;;;;;;1.35;0.85;;;;;;;;;;7396341;19;20140;-90
2023/09/01 02:45:18;;;;;;;0.30;0.30;;;;;;;;;;7396724;19;20148;-90
2023/09/01 02:47:45;;;;;;;0.35;0.35;;;;;;;;;;7398527;19;20505;-90
2023/09/01 02:50:12;;;;;;;0.60;0.60;;;;;;;;;;7399627;19;20145;-90
2023/09/01 02:52:39;;;;;;;0.30;0.30;;;;;;;;;;7399583;19;20137;-89
2023/09/01 02:55:06;;;;;;;2.40;0.63;;;;;;;;;;7394900;19;20150;-89
2023/09/01 02:57:33;;;;;;;0.90;0.82;;;;;;;;;;7398737;19;20205;-89
2023/09/01 02:59:59;;;;;;;0.30;0.30;;;;;;;;;;7395767;19;20209;-89
2023/09/01 03:02:26;;;;;;;0.40;0.40;;;;;;;;;;7397516;19;20132;-90
2023/09/01 03:04:55;;;;;;;0.40;0.40;;;;;;;;;;7394518;19;20141;-89
2023/09/01 03:07:21;;;;;;;0.40;0.40;;;;;;;;;;7394241;19;20133;-90
2023/09/01 03:09:48;;;;;;;0.35;0.35;;;;;;;;;;7395868;19;20161;-90
2023/09/01 03:12:15;;;;;;;0.60;0.60;;;;;;;;;;7395120;19;20221;-89
2023/09/01 03:14:42;;;;;;;0.30;0.30;;;;;;;;;;7394447;19;20144;-89
2023/09/01 03:17:09;;;;;;;0.40;0.40;;;;;;;;;;7395541;19;20200;-90
2023/09/01 03:19:36;;;;;;;0.30;0.30;;;;;;;;;;7395369;19;20137;-90
2023/09/01 03:22:04;;;;;;;0.45;0.45;;;;;;;;;;7394469;19;20148;-89
2023/09/01 03:24:30;;;;;;;1.45;0.85;;;;;;;;;;7397744;19;20555;-89
2023/09/01 03:26:57;;;;;;;0.40;0.40;;;;;;;;;;7398759;19;20141;-89
2023/09/01 03:29:24;;;;;;;0.40;0.40;;;;;;;;;;7396569;19;20145;-89
2023/09/01 03:31:50;;;;;;;0.52;0.52;;;;;;;;;;7397500;19;20145;-90
2023/09/01 03:34:17;;;;;;;0.30;0.30;;;;;;;;;;7400628;19;20483;-89
2023/09/01 03:36:44;;;;;;;0.55;0.55;;;;;;;;;;7397626;19;20133;-89
2023/09/01 03:39:10;;;;;;;0.40;0.40;;;;;;;;;;7395901;19;20161;-89
2023/09/01 03:41:37;;;;;;;0.35;0.35;;;;;;;;;;7397800;19;20192;-90
2023/09/01 03:44:04;;;;;;;0.30;0.30;;;;;;;;;;7397076;19;20509;-89
2023/09/01 03:46:31;;;;;;;2.63;2.17;;;;;;;;;;7396093;19;20196;-89
2023/09/01 03:48:58;;;;;;;0.40;0.40;;;;;;;;;;7392023;19;20748;-89
2023/09/01 03:51:25;;;;;;;0.40;0.40;;;;;;;;;;7396101;19;20150;-89
2023/09/01 03:53:51;;;;;;;0.30;0.30;;;;;;;;;;7393672;19;20610;-89
2023/09/01 03:56:19;;;;;;;0.60;0.60;;;;;;;;;;7392205;19;20141;-90
2023/09/01 03:58:46;;;;;;;0.50;0.50;;;;;;;;;;7392902;19;20156;-89
2023/09/01 04:01:13;;;;;;;0.65;0.65;;;;;;;;;;7395328;19;20129;-89
2023/09/01 04:03:44;;;;;;;0.30;0.30;;;;;;;;;;7396590;19;20125;-90
2023/09/01 04:06:11;;;;;;;0.30;0.30;;;;;;;;;;7394490;19;20140;-90
2023/09/01 04:08:38;;;;;;;0.30;0.30;;;;;;;;;;7396330;19;20152;-89
2023/09/01 04:11:05;;;;;;;0.30;0.30;;;;;;;;;;7396813;19;20144;-89
2023/09/01 04:13:33;;;;;;;0.60;0.60;;;;;;;;;;7412243;19;20114;-90
2023/09/01 04:16:00;;;;;;;0.70;0.70;;;;;;;;;;7428380;19;20505;-90
2023/09/01 04:18:27;;;;;;;0.45;0.45;;;;;;;;;;7426239;19;20149;-90
2023/09/01 04:20:54;;;;;;;0.50;0.50;;;;;;;;;;7426795;19;20150;-90
2023/09/01 04:23:21;;;;;;;0.65;0.65;;;;;;;;;;7425430;19;20129;-90
2023/09/01 04:25:49;;;;;;;0.30;0.30;;;;;;;;;;7423588;19;20141;-89
2023/09/01 04:28:16;;;;;;;0.30;0.30;;;;;;;;;;7425068;19;20181;-90
2023/09/01 04:30:44;;;;;;;0.45;0.45;;;;;;;;;;7417506;19;20623;-90
2023/09/01 04:33:11;;;;;;;0.57;0.55;;;;;;;;;;7399105;19;20129;-90
2023/09/01 04:35:38;;;;;;;0.30;0.30;;;;;;;;;;7398315;19;20130;-89
2023/09/01 04:38:06;;;;;;;0.60;0.60;;;;;;;;;;7396160;19;20181;-90
2023/09/01 04:40:32;;;;;;;0.60;0.60;;;;;;;;;;7402005;19;20147;-91
2023/09/01 04:42:59;;;;;;;0.40;0.40;;;;;;;;;;7418119;19;20129;-91
2023/09/01 04:45:26;;;;;;;0.40;0.40;;;;;;;;;;7426241;19;20129;-90
2023/09/01 04:47:53;;;;;;;0.73;0.68;;;;;;;;;;7424050;19;20153;-90
2023/09/01 04:50:20;;;;;;;0.30;0.30;;;;;;;;;;7404456;19;20606;-91
2023/09/01 04:52:47;;;;;;;0.80;0.60;;;;;;;;;;7394530;19;20605;-90
2023/09/01 04:55:13;;;;;;;0.32;0.32;;;;;;;;;;7391423;19;20606;-91
2023/09/01 04:57:40;;;;;;;0.30;0.30;;;;;;;;;;7384698;19;20141;-91
2023/09/01 05:00:15;;;;;;;0.30;0.30;;;;;;;;;;7392424;19;20157;-91
2023/09/01 05:02:44;;;;;;;0.90;0.63;;;;;;;;;;7392208;19;20151;-89
2023/09/01 05:05:12;;;;;;;0.47;0.47;;;;;;;;;;7395925;19;20151;-93
2023/09/01 05:07:39;;;;;;;0.30;0.30;;;;;;;;;;7397320;19;20139;-92
2023/09/01 05:10:09;;;;;;;0.93;0.77;;;;;;;;;;7395147;19;20198;-92
2023/09/01 05:12:36;;;;;;;0.30;0.30;;;;;;;;;;7390684;19;20146;-91
2023/09/01 05:15:03;;;;;;;0.98;0.98;;;;;;;;;;7395766;19;20149;-90
2023/09/01 05:17:31;;;;;;;1.30;1.20;;;;;;;;;;7394393;19;20145;-88
2023/09/01 05:19:57;;;;;;;0.52;0.52;;;;;;;;;;7395626;19;20185;-88
2023/09/01 05:22:25;;;;;;;0.35;0.35;;;;;;;;;;7395931;19;20145;-87
2023/09/01 05:24:53;;;;;;;0.70;0.70;;;;;;;;;;7394766;19;20602;-86
2023/09/01 05:27:20;;;;;;;0.50;0.50;;;;;;;;;;7394557;19;20141;-88
2023/09/01 05:29:47;;;;;;;0.73;0.73;;;;;;;;;;7392695;19;20165;-89
2023/09/01 05:32:15;;;;;;;0.47;0.47;;;;;;;;;;7390558;19;20149;-88
2023/09/01 05:34:42;;;;;;;0.30;0.30;;;;;;;;;;7388496;19;20133;-88
2023/09/01 05:37:11;;;;;;;0.95;0.55;;;;;;;;;;7391336;19;20224;-87
2023/09/01 05:39:42;;;;;;;0.30;0.30;;;;;;;;;;7393389;19;20163;-87
2023/09/01 05:42:09;;;;;;;1.20;1.05;;;;;;;;;;7394524;19;20133;-87
2023/09/01 05:44:37;;;;;;;0.30;0.30;;;;;;;;;;7394258;19;20140;-88
2023/09/01 05:47:03;;;;;;;0.88;0.88;;;;;;;;;;7394602;19;20141;-87
2023/09/01 05:49:31;;;;;;;0.40;0.40;;;;;;;;;;7393838;19;20212;-88
2023/09/01 05:51:59;;;;;;;0.32;0.32;;;;;;;;;;7392849;19;20173;-86
2023/09/01 05:54:26;;;;;;;0.52;0.52;;;;;;;;;;7397814;19;20129;-88
2023/09/01 05:56:53;;;;;;;0.30;0.30;;;;;;;;;;7398087;19;20158;-89
2023/09/01 05:59:20;;;;;;;0.40;0.40;;;;;;;;;;7394470;19;20525;-88
2023/09/01 06:01:47;;;;;;;0.55;0.55;;;;;;;;;;7394410;19;20212;-89
2023/09/01 06:04:14;;;;;;;0.40;0.40;;;;;;;;;;7394734;19;20141;-87
2023/09/01 06:06:40;;;;;;;1.15;1.05;;;;;;;;;;7396242;19;20215;-87
2023/09/01 06:09:07;;;;;;;0.30;0.30;;;;;;;;;;7392810;19;20648;-87
2023/09/01 06:11:35;;;;;;;0.60;0.60;;;;;;;;;;7393944;19;20144;-89
2023/09/01 06:14:03;;;;;;;1.20;0.82;;;;;;;;;;7392158;19;20136;-89
2023/09/01 06:16:30;;;;;;;0.30;0.30;;;;;;;;;;7395044;19;20133;-88
2023/09/01 06:18:59;;;;;;;0.30;0.30;;;;;;;;;;7394224;19;20145;-89
2023/09/01 06:21:26;;;;;;;0.40;0.40;;;;;;;;;;7394175;19;20157;-88
2023/09/01 06:23:54;;;;;;;0.30;0.30;;;;;;;;;;7404390;19;20129;-92
2023/09/01 06:26:20;;;;;;;0.73;0.73;;;;;;;;;;7424294;19;20129;-92
2023/09/01 06:28:48;;;;;;;0.30;0.30;;;;;;;;;;7423543;19;20166;-93
2023/09/01 06:31:16;;;;;;;0.60;0.60;;;;;;;;;;7418029;19;20136;-88
2023/09/01 06:33:44;;;;;;;0.30;0.30;;;;;;;;;;7395370;19;20140;-89
2023/09/01 06:36:12;;;;;;;0.40;0.40;;;;;;;;;;7392846;19;20153;-88
2023/09/01 06:38:40;;;;;;;0.30;0.30;;;;;;;;;;7390860;19;20224;-89
2023/09/01 06:41:08;;;;;;;0.35;0.35;;;;;;;;;;7391796;19;20137;-89
2023/09/01 06:43:35;;;;;;;0.30;0.30;;;;;;;;;;7389993;19;20136;-89
2023/09/01 06:46:02;;;;;;;0.47;0.47;;;;;;;;;;7390459;19;20141;-88
2023/09/01 06:48:30;;;;;;;0.38;0.38;;;;;;;;;;7391190;19;20787;-88
2023/09/01 06:51:01;;;;;;;0.40;0.40;;;;;;;;;;7394664;19;20212;-88
2023/09/01 06:53:28;;;;;;;0.50;0.50;;;;;;;;;;7393405;19;20143;-88
2023/09/01 06:55:54;;;;;;;0.30;0.30;;;;;;;;;;7393062;19;20133;-92
2023/09/01 06:58:21;;;;;;;0.70;0.70;;;;;;;;;;7393185;19;20181;-89
2023/09/01 07:00:51;;;;;;;0.40;0.40;;;;;;;;;;7393880;19;20165;-92
2023/09/01 07:03:21;;;;;;;0.50;0.50;;;;;;;;;;7392280;19;20485;-88
2023/09/01 07:05:57;;;;;;;0.80;0.80;;;;;;;;;;7404690;19;20151;-93
2023/09/01 07:08:28;;;;;;;0.30;0.30;;;;;;;;;;7421643;19;20140;-93
2023/09/01 07:11:06;;;;;;;0.30;0.30;;;;;;;;;;7423478;19;20218;-92
2023/09/01 07:13:33;;;;;;;0.30;0.30;;;;;;;;;;7423639;19;20136;-93
2023/09/01 07:15:59;;;;;;;0.55;0.55;;;;;;;;;;7411134;19;20219;-88
2023/09/01 07:18:26;;;;;;;0.40;0.40;;;;;;;;;;7394285;19;20165;-88
2023/09/01 07:20:58;;;;;;;0.73;0.60;;;;;;;;;;7401108;19;20173;-89
2023/09/01 07:23:24;;;;;;;0.32;0.32;;;;;;;;;;7398289;19;20158;-89
2023/09/01 07:25:55;;;;;;;0.50;0.50;;;;;;;;;;7401228;19;20154;-89
2023/09/01 07:28:22;;;;;;;0.40;0.40;;;;;;;;;;7400449;19;20153;-90
2023/09/01 07:30:49;;;;;;;0.40;0.40;;;;;;;;;;7400652;19;20137;-88
2023/09/01 07:33:16;;;;;;;0.50;0.50;;;;;;;;;;7400779;19;20133;-89
2023/09/01 07:35:50;;;;;;;0.47;0.47;;;;;;;;;;7402021;19;20117;-88
2023/09/01 07:38:17;;;;;;;0.50;0.50;;;;;;;;;;7398192;19;20164;-89
2023/09/01 07:40:44;;;;;;;0.77;0.77;;;;;;;;;;7397627;19;20129;-89
2023/09/01 07:43:11;;;;;;;0.80;0.80;;;;;;;;;;7398130;19;20136;-90
2023/09/01 07:45:39;;;;;;;10.48;0.90;;;;;;;;;;7396974;19;20149;-89
2023/09/01 07:48:06;;;;;;;0.63;0.63;;;;;;;;;;7397232;19;20160;-89
2023/09/01 07:50:48;;;;;;;0.55;0.55;;;;;;;;;;7392206;19;20220;-88
2023/09/01 07:53:15;;;;;;;0.35;0.35;;;;;;;;;;7395825;19;20141;-89
2023/09/01 07:55:41;;;;;;;0.40;0.40;;;;;;;;;;7397701;19;20125;-93
2023/09/01 07:58:08;;;;;;;0.40;0.40;;;;;;;;;;7397918;19;20561;-89
2023/09/01 08:00:37;;;;;;;0.50;0.50;;;;;;;;;;7398144;19;20166;-91
2023/09/01 08:03:05;;;;;;;0.40;0.38;;;;;;;;;;7398137;19;20133;-89
2023/09/01 08:05:32;;;;;;;0.50;0.50;;;;;;;;;;7394844;19;20264;-91
2023/09/01 08:08:00;;;;;;;0.55;0.55;;;;;;;;;;7395105;19;20166;-91
2023/09/01 08:10:27;;;;;;;0.40;0.40;;;;;;;;;;7397320;19;20148;-91
2023/09/01 08:12:53;;;;;;;0.30;0.30;;;;;;;;;;7399851;19;20545;-90
2023/09/01 08:15:20;;;;;;;0.60;0.60;;;;;;;;;;7418953;19;20133;-94
2023/09/01 08:17:49;;;;;;;0.40;0.40;;;;;;;;;;7428626;19;20149;-90
2023/09/01 08:20:17;;;;;;;0.40;0.40;;;;;;;;;;7427988;19;20204;-91
2023/09/01 08:22:44;;;;;;;0.80;0.80;;;;;;;;;;7407781;19;20133;-90
2023/09/01 08:25:10;;;;;;;0.50;0.50;;;;;;;;;;7396777;19;20137;-90
2023/09/01 08:27:37;;;;;;;0.30;0.30;;;;;;;;;;7395718;19;20141;-91
2023/09/01 08:30:06;;;;;;;0.47;0.47;;;;;;;;;;7390695;19;20157;-91
2023/09/01 08:32:33;;;;;;;0.40;0.40;;;;;;;;;;7395296;19;20208;-90
2023/09/01 08:35:03;;;;;;;0.40;0.40;;;;;;;;;;7397573;19;20129;-91
2023/09/01 08:37:29;;;;;;;0.38;0.38;;;;;;;;;;7394450;19;20752;-90
2023/09/01 08:39:56;;;;;;;2.22;1.08;;;;;;;;;;7396819;19;20524;-90
2023/09/01 08:42:25;;;;;;;0.30;0.30;;;;;;;;;;7386877;19;20141;-90
2023/09/01 08:44:52;;;;;;;0.30;0.30;;;;;;;;;;7397147;19;20142;-91
2023/09/01 08:47:22;;;;;;;0.30;0.30;;;;;;;;;;7396693;19;20150;-91
2023/09/01 08:49:50;;;;;;;0.30;0.30;;;;;;;;;;7397220;19;20149;-91
2023/09/01 08:52:18;;;;;;;0.30;0.30;;;;;;;;;;7396285;19;20598;-91
2023/09/01 08:54:46;;;;;;;0.38;0.38;;;;;;;;;;7398419;19;20144;-91
2023/09/01 08:57:12;;;;;;;0.30;0.30;;;;;;;;;;7396270;19;20136;-91
2023/09/01 08:59:39;;;;;;;0.73;0.73;;;;;;;;;;7400407;19;20508;-92
2023/09/01 09:02:07;;;;;;;0.50;0.50;;;;;;;;;;7400235;19;20142;-92
2023/09/01 09:04:34;;;;;;;4.68;2.30;;;;;;;;;;7399675;19;20144;-91
2023/09/01 09:07:12;;;;;;;0.77;0.70;;;;;;;;;;7400428;19;20177;-91
2023/09/01 09:09:54;;;;;;;0.30;0.30;;;;;;;;;;7394344;19;20149;-92
2023/09/01 09:12:22;;;;;;;1.75;0.68;;;;;;;;;;7399328;19;20154;-92
2023/09/01 09:14:52;;;;;;;0.77;0.77;;;;;;;;;;7398365;19;20197;-90
2023/09/01 09:17:42;;;;;;;0.30;0.30;;;;;;;;;;7395433;19;20157;-90
2023/09/01 09:20:09;;;;;;;0.40;0.40;;;;;;;;;;7399157;19;20132;-91
2023/09/01 09:22:56;;;;;;;0.30;0.30;;;;;;;;;;7392964;19;20149;-92
2023/09/01 09:25:33;;;;;;;0.30;0.30;;;;;;;;;;7395693;19;20542;-92
2023/09/01 09:28:09;;;;;;;0.40;0.40;;;;;;;;;;7400131;19;20140;-92
2023/09/01 09:30:35;;;;;;;0.50;0.50;;;;;;;;;;7399425;19;20140;-93
2023/09/01 09:33:06;;;;;;;0.30;0.30;;;;;;;;;;7415010;19;20154;-92
2023/09/01 09:35:34;;;;;;;0.30;0.30;;;;;;;;;;7390771;19;20603;-91
2023/09/01 09:38:03;;;;;;;0.55;0.55;;;;;;;;;;7389473;19;20161;-92
2023/09/01 09:40:29;;;;;;;0.30;0.30;;;;;;;;;;7394076;19;20889;-91
2023/09/01 09:42:58;;;;;;;0.40;0.40;;;;;;;;;;7390539;19;20209;-91
2023/09/01 09:45:29;;;;;;;0.30;0.30;;;;;;;;;;7393061;19;20140;-92
2023/09/01 09:47:58;;;;;;;0.30;0.30;;;;;;;;;;7397809;19;20220;-92
2023/09/01 09:50:25;;;;;;;0.30;0.30;;;;;;;;;;7393791;19;20136;-91
2023/09/01 09:53:03;;;;;;;0.55;0.55;;;;;;;;;;7391723;19;20140;-90
2023/09/01 09:55:39;;;;;;;0.30;0.30;;;;;;;;;;7392850;19;20140;-90
2023/09/01 09:58:07;;;;;;;0.73;0.73;;;;;;;;;;7390539;19;20140;-92
2023/09/01 10:00:45;;;;;;;0.30;0.30;;;;;;;;;;7391862;19;20154;-90
2023/09/01 10:03:11;;;;;;;0.50;0.50;;;;;;;;;;7398557;19;20129;-92
2023/09/01 10:05:42;;;;;;;0.30;0.30;;;;;;;;;;7402101;19;20634;-92
2023/09/01 10:08:09;;;;;;;1.10;0.90;;;;;;;;;;7414749;19;20149;-92
2023/09/01 10:10:37;;;;;;;0.30;0.30;;;;;;;;;;7411908;19;20141;-92
2023/09/01 10:13:07;;;;;;;0.35;0.35;;;;;;;;;;7405974;19;20147;-92
2023/09/01 10:15:35;;;;;;;0.30;0.30;;;;;;;;;;7419938;19;20732;-92
2023/09/01 10:18:11;;;;;;;0.30;0.30;;;;;;;;;;7405253;19;20643;-92
2023/09/01 10:20:45;;;;;;;0.30;0.30;;;;;;;;;;7404793;19;20145;-90
2023/09/01 10:23:12;;;;;;;0.50;0.50;;;;;;;;;;7397270;19;20196;-92
2023/09/01 10:25:39;;;;;;;0.55;0.55;;;;;;;;;;7395777;19;20154;-92
2023/09/01 10:28:12;;;;;;;0.52;0.52;;;;;;;;;;7393538;19;20161;-90
2023/09/01 10:30:41;;;;;;;0.30;0.30;;;;;;;;;;7393416;19;20140;-91
2023/09/01 10:33:10;;;;;;;0.63;0.63;;;;;;;;;;7394251;19;20361;-94
2023/09/01 10:35:45;;;;;;;0.70;0.70;;;;;;;;;;7390723;19;20905;-91
2023/09/01 10:38:21;;;;;;;0.50;0.50;;;;;;;;;;7392061;19;20145;-91
2023/09/01 10:40:54;;;;;;;0.30;0.30;;;;;;;;;;7392113;19;20136;-92
2023/09/01 10:43:33;;;;;;;0.65;0.63;;;;;;;;;;7394189;19;20137;-91
2023/09/01 10:46:13;;;;;;;0.30;0.30;;;;;;;;;;7396152;19;20133;-89
2023/09/01 10:48:59;;;;;;;0.40;0.40;;;;;;;;;;7395885;19;20609;-88
2023/09/01 10:51:30;;;;;;;0.40;0.40;;;;;;;;;;7398458;19;20348;-87
2023/09/01 10:53:59;;;;;;;0.40;0.40;;;;;;;;;;7405235;19;20389;-87
2023/09/01 10:56:27;;;;;;;6.15;0.85;;;;;;;;;;7400943;19;20144;-92
2023/09/01 10:58:55;;;;;;;0.60;0.60;;;;;;;;;;7401341;19;20153;-88
2023/09/01 11:01:36;;;;;;;0.75;0.75;;;;;;;;;;7399681;19;20181;-92
2023/09/01 11:04:40;;;;;;;0.55;0.55;;;;;;;;;;7400656;19;20113;-91
2023/09/01 11:07:08;;;;;;;13.95;1.15;;;;;;;;;;7405238;19;20132;-87
2023/09/01 11:09:34;;;;;;;0.30;0.30;;;;;;;;;;7402602;19;20166;-89
2023/09/01 11:12:02;;;;;;;0.70;0.70;;;;;;;;;;7400808;19;20365;-90
2023/09/01 11:14:30;;;;;;;0.90;0.90;;;;;;;;;;7402534;19;20143;-90
2023/09/01 11:16:58;;;;;;;0.30;0.30;;;;;;;;;;7400794;19;20137;-92
2023/09/01 11:19:24;;;;;;;0.50;0.50;;;;;;;;;;7399771;19;20151;-92
2023/09/01 11:21:51;;;;;;;0.60;0.60;;;;;;;;;;7398914;19;20140;-92
2023/09/01 11:24:21;;;;;;;0.52;0.52;;;;;;;;;;7399751;19;20155;-91
2023/09/01 11:26:49;;;;;;;0.40;0.40;;;;;;;;;;7397731;19;20145;-89
2023/09/01 11:29:16;;;;;;;0.32;0.32;;;;;;;;;;7401020;19;20156;-88
2023/09/01 11:31:43;;;;;;;0.30;0.30;;;;;;;;;;7400540;19;20168;-90
2023/09/01 11:34:10;;;;;;;0.63;0.43;;;;;;;;;;7402173;19;20189;-87
2023/09/01 11:36:47;;;;;;;0.50;0.50;;;;;;;;;;7401281;19;20141;-85
2023/09/01 11:39:14;;;;;;;1.20;1.10;;;;;;;;;;7400770;19;20697;-88
2023/09/01 11:41:41;;;;;;;0.30;0.30;;;;;;;;;;7401461;19;20137;-88
2023/09/01 11:44:08;;;;;;;0.30;0.30;;;;;;;;;;7402962;19;20498;-88
2023/09/01 11:46:36;;;;;;;0.30;0.30;;;;;;;;;;7403974;19;20144;-88
2023/09/01 11:49:06;;;;;;;0.30;0.30;;;;;;;;;;7399835;19;20356;-92
2023/09/01 11:51:34;;;;;;;0.40;0.40;;;;;;;;;;7398862;19;20351;-93
2023/09/01 11:54:01;;;;;;;0.38;0.38;;;;;;;;;;7399098;19;20360;-90
2023/09/01 11:56:27;;;;;;;0.52;0.52;;;;;;;;;;7399692;19;20470;-90
2023/09/01 11:58:56;;;;;;;0.52;0.52;;;;;;;;;;7399166;19;20493;-88
2023/09/01 12:01:23;;;;;;;0.40;0.40;;;;;;;;;;7402449;19;20137;-87
2023/09/01 12:03:52;;;;;;;0.35;0.35;;;;;;;;;;7401726;19;20579;-89
2023/09/01 12:06:22;;;;;;;0.40;0.40;;;;;;;;;;7406171;19;20145;-87
2023/09/01 12:08:51;;;;;;;0.43;0.43;;;;;;;;;;7402617;19;20345;-89
2023/09/01 12:11:18;;;;;;;0.40;0.40;;;;;;;;;;7401937;19;20360;-89
2023/09/01 12:13:48;;;;;;;0.50;0.50;;;;;;;;;;7402229;19;20934;-89
2023/09/01 12:16:20;;;;;;;0.65;0.65;;;;;;;;;;7399664;19;20137;-90
2023/09/01 12:18:47;;;;;;;0.40;0.40;;;;;;;;;;7402870;19;20145;-89
2023/09/01 12:21:14;;;;;;;0.43;0.43;;;;;;;;;;7403636;19;20701;-88
2023/09/01 12:23:43;;;;;;;0.43;0.43;;;;;;;;;;7402009;19;20151;-89
2023/09/01 12:26:10;;;;;;;0.40;0.40;;;;;;;;;;7397746;19;20145;-89
2023/09/01 12:28:38;;;;;;;0.30;0.30;;;;;;;;;;7406709;19;20157;-89
2023/09/01 12:31:06;;;;;;;0.30;0.30;;;;;;;;;;7416908;19;20141;-87
2023/09/01 12:33:34;;;;;;;0.40;0.40;;;;;;;;;;7425209;19;20137;-87
2023/09/01 12:36:02;;;;;;;0.50;0.50;;;;;;;;;;7428010;19;20136;-88
2023/09/01 12:38:29;;;;;;;0.40;0.40;;;;;;;;;;7426473;19;20178;-87
2023/09/01 12:40:56;;;;;;;0.30;0.30;;;;;;;;;;7427367;19;20140;-87
2023/09/01 12:43:22;;;;;;;0.40;0.40;;;;;;;;;;7427409;19;20133;-88
2023/09/01 12:45:49;;;;;;;0.95;0.95;;;;;;;;;;7425637;19;20149;-86
2023/09/01 12:48:16;;;;;;;0.40;0.40;;;;;;;;;;7425040;19;20427;-86
2023/09/01 12:50:46;;;;;;;0.65;0.65;;;;;;;;;;7424469;19;20133;-89
2023/09/01 12:53:14;;;;;;;0.52;0.52;;;;;;;;;;7403883;19;20157;-90
2023/09/01 12:55:41;;;;;;;0.40;0.40;;;;;;;;;;7399248;19;20200;-88
2023/09/01 12:58:08;;;;;;;0.40;0.40;;;;;;;;;;7399525;19;20149;-87
2023/09/01 13:00:36;;;;;;;0.30;0.30;;;;;;;;;;7399856;19;20137;-88
2023/09/01 13:03:03;;;;;;;0.40;0.40;;;;;;;;;;7399900;19;20544;-88
2023/09/01 13:05:31;;;;;;;0.32;0.32;;;;;;;;;;7399038;19;20685;-91
2023/09/01 13:07:59;;;;;;;0.30;0.30;;;;;;;;;;7400532;19;20597;-88
2023/09/01 13:10:26;;;;;;;0.30;0.30;;;;;;;;;;7401849;19;20478;-89
2023/09/01 13:12:53;;;;;;;0.30;0.30;;;;;;;;;;7400131;19;20162;-89
2023/09/01 13:15:20;;;;;;;0.30;0.30;;;;;;;;;;7399149;19;20634;-88
2023/09/01 13:17:47;;;;;;;0.50;0.50;;;;;;;;;;7409986;19;20154;-88
2023/09/01 13:20:14;;;;;;;0.38;0.38;;;;;;;;;;7414779;19;20470;-89
2023/09/01 13:22:41;;;;;;;0.40;0.40;;;;;;;;;;7401856;19;20478;-89
2023/09/01 13:25:09;;;;;;;0.40;0.40;;;;;;;;;;7398611;19;20125;-87
2023/09/01 13:27:36;;;;;;;0.30;0.30;;;;;;;;;;7400326;19;20200;-89
2023/09/01 13:30:02;;;;;;;0.20;0.20;;;;;;;;;;7397493;19;20477;-88
2023/09/01 13:32:29;;;;;;;0.40;0.40;;;;;;;;;;7398280;19;20145;-88
2023/09/01 13:34:56;;;;;;;0.65;0.65;;;;;;;;;;7398025;19;20130;-88
2023/09/01 13:37:24;;;;;;;0.70;0.47;;;;;;;;;;7397800;19;20133;-91
2023/09/01 13:39:58;;;;;;;0.30;0.30;;;;;;;;;;7396875;19;20154;-86
2023/09/01 13:42:26;;;;;;;0.40;0.40;;;;;;;;;;7399196;19;20601;-87
2023/09/01 13:44:57;;;;;;;1.20;1.10;;;;;;;;;;7392391;19;20157;-87
2023/09/01 13:47:25;;;;;;;1.33;0.85;;;;;;;;;;7389729;19;20137;-88
2023/09/01 13:49:52;;;;;;;0.47;0.47;;;;;;;;;;7393601;19;20160;-86
2023/09/01 13:52:23;;;;;;;0.40;0.40;;;;;;;;;;7395696;19;20141;-87
2023/09/01 13:54:53;;;;;;;0.47;0.47;;;;;;;;;;7397479;19;20165;-88
2023/09/01 13:57:20;;;;;;;0.30;0.30;;;;;;;;;;7396319;19;20614;-89
2023/09/01 13:59:48;;;;;;;0.30;0.30;;;;;;;;;;7389399;19;20184;-87
2023/09/01 14:02:15;;;;;;;0.30;0.30;;;;;;;;;;7392626;19;20145;-87
2023/09/01 14:04:42;;;;;;;0.38;0.38;;;;;;;;;;7393063;19;20133;-85
2023/09/01 14:07:13;;;;;;;1.10;0.75;;;;;;;;;;7396356;19;20609;-88
2023/09/01 14:09:40;;;;;;;0.40;0.40;;;;;;;;;;7394335;19;20185;-89
2023/09/01 14:12:06;;;;;;;0.40;0.40;;;;;;;;;;7394534;19;20139;-87
